Time;durP1;ratioP1;P1;durP2;ratioP2;P2;SDS_P1;SDS_P2;PMS_P1;PMS_P2;Temp;Humidity;BMP_temperature;BMP_pressure;BME280_temperature;BME280_humidity;BME280_pressure;Samples;Min_cycle;Max_cycle;Signal;HPM_P1;HPM_P2
2021/09/10 00:00:07;;;;;;;9.45;6.92;;;;;;;13.25;58.22;100735.78;1717350;83;21107;-79
2021/09/10 00:02:33;;;;;;;14.55;6.50;;;;;;;13.24;58.26;100733.62;1701502;84;20985;-79
2021/09/10 00:05:00;;;;;;;11.35;6.87;;;;;;;13.22;58.26;100736.70;1704746;84;21507;-79
2021/09/10 00:07:26;;;;;;;8.45;6.40;;;;;;;13.21;58.35;100737.59;1687819;84;21595;-79
2021/09/10 00:09:53;;;;;;;9.60;6.62;;;;;;;13.20;58.44;100733.30;1704783;84;21103;-79
2021/09/10 00:12:19;;;;;;;11.65;7.62;;;;;;;13.20;58.47;100731.14;1696311;83;21027;-79
2021/09/10 00:14:46;;;;;;;11.33;6.80;;;;;;;13.18;58.51;100735.52;1704612;84;21053;-79
2021/09/10 00:17:12;;;;;;;12.37;6.90;;;;;;;13.16;58.57;100736.85;1703837;84;21121;-79
2021/09/10 00:19:38;;;;;;;8.88;6.62;;;;;;;13.13;58.65;100739.49;1705906;84;20988;-79
2021/09/10 00:22:04;;;;;;;15.32;7.10;;;;;;;13.14;58.71;100737.75;1705127;84;21055;-79
2021/09/10 00:24:31;;;;;;;10.68;6.83;;;;;;;13.12;58.76;100733.89;1693204;84;21096;-79
2021/09/10 00:26:57;;;;;;;9.37;6.97;;;;;;;13.12;58.81;100737.78;1705940;84;21083;-79
2021/09/10 00:29:23;;;;;;;9.33;6.65;;;;;;;13.10;58.84;100736.97;1705938;84;21493;-79
2021/09/10 00:31:50;;;;;;;9.55;6.47;;;;;;;13.08;58.83;100736.16;1705819;84;21075;-79
2021/09/10 00:34:16;;;;;;;9.68;6.17;;;;;;;13.05;58.86;100736.67;1705348;84;21120;-79
2021/09/10 00:36:46;;;;;;;7.62;6.47;;;;;;;13.00;58.92;100732.89;1706049;84;21076;-79
2021/09/10 00:39:14;;;;;;;8.68;5.75;;;;;;;12.95;58.96;100740.41;1705429;84;21044;-79
2021/09/10 00:41:41;;;;;;;9.58;6.72;;;;;;;12.90;59.00;100739.22;1678303;84;21075;-79
2021/09/10 00:44:07;;;;;;;;;;;;;;;12.89;59.11;100737.06;1679995;84;21527;-79
2021/09/10 00:46:34;;;;;;;13.38;6.37;;;;;;;12.88;59.64;100736.66;1689671;83;20214;-79
2021/09/10 00:49:01;;;;;;;10.48;6.00;;;;;;;12.85;59.17;100743.22;1677240;85;21068;-79
2021/09/10 00:51:27;;;;;;;7.10;6.20;;;;;;;12.82;59.23;100735.95;1697039;83;21165;-79
2021/09/10 00:53:54;;;;;;;10.13;5.95;;;;;;;12.80;59.26;100738.58;1686681;84;21079;-79
2021/09/10 00:56:20;;;;;;;7.95;6.00;;;;;;;12.75;59.31;100732.64;1706308;83;21505;-79
2021/09/10 00:58:46;;;;;;;8.10;6.25;;;;;;;12.73;59.36;100735.71;1686269;84;21504;-79
2021/09/10 01:01:13;;;;;;;9.18;6.15;;;;;;;12.71;59.37;100739.23;1684950;83;21109;-79
2021/09/10 01:03:39;;;;;;;7.05;5.17;;;;;;;12.68;59.44;100738.85;1715407;83;20913;-79
2021/09/10 01:06:06;;;;;;;9.00;6.05;;;;;;;12.64;59.45;100743.70;1707143;84;20956;-79
2021/09/10 01:08:33;;;;;;;7.20;6.50;;;;;;;12.61;59.51;100739.88;1682758;84;26598;-79
2021/09/10 01:11:06;;;;;;;7.25;5.62;;;;;;;12.58;59.59;100740.80;1696882;82;20976;-79
2021/09/10 01:13:33;;;;;;;8.05;6.00;;;;;;;12.55;59.64;100742.16;1688680;84;26993;-79
2021/09/10 01:16:00;;;;;;;8.73;6.65;;;;;;;12.53;59.68;100744.38;1694946;84;20961;-79
2021/09/10 01:18:26;;;;;;;12.33;6.95;;;;;;;12.51;59.76;100741.82;1688493;84;20886;-79
2021/09/10 01:20:52;;;;;;;7.12;5.87;;;;;;;12.51;59.83;100743.56;1711452;82;20913;-79
2021/09/10 01:23:19;;;;;;;11.20;6.37;;;;;;;12.50;59.84;100746.59;1715709;82;20943;-79
2021/09/10 01:25:46;;;;;;;;;;;;;;;12.45;59.84;100738.09;1693201;84;20945;-79
2021/09/10 01:28:12;;;;;;;6.00;5.37;;;;;;;12.43;60.42;100741.16;1683122;82;20232;-79
2021/09/10 01:30:38;;;;;;;6.70;5.90;;;;;;;12.39;60.03;100738.22;1670752;84;20888;-79
2021/09/10 01:33:09;;;;;;;7.03;5.95;;;;;;;12.39;60.07;100746.00;1707040;84;20980;-79
2021/09/10 01:35:36;;;;;;;7.58;6.35;;;;;;;12.39;60.09;100746.45;1718333;82;20898;-79
2021/09/10 01:38:04;;;;;;;9.30;7.10;;;;;;;12.38;60.12;100744.73;1678398;84;20890;-78
2021/09/10 01:40:30;;;;;;;9.55;6.97;;;;;;;12.37;60.14;100739.14;1690632;84;21419;-78
2021/09/10 01:42:57;;;;;;;11.53;6.50;;;;;;;12.36;60.26;100743.48;1690909;84;20925;-78
2021/09/10 01:45:24;;;;;;;8.98;5.90;;;;;;;12.37;60.29;100740.00;1700089;83;20964;-78
2021/09/10 01:47:50;;;;;;;9.98;6.55;;;;;;;12.35;60.32;100746.10;1694563;84;25053;-78
2021/09/10 01:50:19;;;;;;;8.93;6.72;;;;;;;12.32;60.40;100740.98;1689073;84;20934;-78
2021/09/10 01:52:46;;;;;;;8.80;7.33;;;;;;;12.32;60.49;100741.83;1703939;84;21438;-78
2021/09/10 01:55:13;;;;;;;;;;;;;;;12.34;60.47;100747.84;1689942;84;21076;-78
2021/09/10 01:57:43;;;;;;;9.43;6.10;;;;;;;12.35;61.11;100746.10;1711422;83;20180;-78
2021/09/10 02:00:10;;;;;;;8.90;5.67;;;;;;;12.32;60.57;100744.87;1705831;83;21125;-78
2021/09/10 02:02:37;;;;;;;10.13;6.05;;;;;;;12.32;60.63;100744.42;1664096;84;21087;-78
2021/09/10 02:05:04;;;;;;;6.55;5.83;;;;;;;12.32;60.65;100742.27;1696317;84;21106;-78
2021/09/10 02:07:30;;;;;;;9.08;6.62;;;;;;;12.32;60.72;100748.31;1689871;84;21062;-78
2021/09/10 02:09:56;;;;;;;9.88;6.05;;;;;;;12.29;60.74;100749.67;1699895;83;21056;-78
2021/09/10 02:12:23;;;;;;;8.03;6.03;;;;;;;12.24;61.00;100741.14;1709620;83;21060;-78
2021/09/10 02:14:49;;;;;;;9.30;5.72;;;;;;;12.24;61.00;100741.14;1705902;84;21047;-78
2021/09/10 02:17:16;;;;;;;8.90;6.62;;;;;;;12.24;60.85;100746.32;1688010;84;21254;-78
2021/09/10 02:19:44;;;;;;;7.28;6.25;;;;;;;12.21;60.92;100742.05;1695783;84;21060;-78
2021/09/10 02:22:10;;;;;;;9.58;6.30;;;;;;;12.21;60.98;100742.05;1687609;84;20977;-78
2021/09/10 02:24:36;;;;;;;11.15;6.95;;;;;;;12.20;61.02;100745.53;1706020;84;21657;-78
2021/09/10 02:27:03;;;;;;;8.23;5.53;;;;;;;12.18;61.03;100740.82;1688019;84;21061;-78
2021/09/10 02:29:31;;;;;;;9.95;7.22;;;;;;;12.17;61.05;100742.14;1704887;84;21127;-78
2021/09/10 02:31:57;;;;;;;12.10;7.12;;;;;;;12.13;61.11;100743.95;1679504;84;20982;-78
2021/09/10 02:34:23;;;;;;;10.85;7.10;;;;;;;12.11;61.19;100740.97;1702844;84;21464;-78
2021/09/10 02:36:50;;;;;;;13.32;6.85;;;;;;;12.11;61.20;100739.68;1687719;84;21110;-78
2021/09/10 02:39:16;;;;;;;16.60;6.72;;;;;;;12.09;61.22;100744.04;1717790;82;21036;-78
2021/09/10 02:41:42;;;;;;;7.33;6.58;;;;;;;12.05;61.23;100741.09;1705663;84;21615;-78
2021/09/10 02:44:09;;;;;;;14.05;6.72;;;;;;;12.02;61.29;100738.13;1676321;84;22192;-78
2021/09/10 02:46:38;;;;;;;8.25;7.10;;;;;;;12.01;61.34;100739.00;1680578;84;21134;-78
2021/09/10 02:49:04;;;;;;;9.38;7.05;;;;;;;12.01;61.38;100743.34;1689316;84;21050;-78
2021/09/10 02:51:31;;;;;;;14.80;7.10;;;;;;;12.00;61.42;100733.41;1701099;83;21037;-78
2021/09/10 02:53:57;;;;;;;10.68;7.50;;;;;;;12.00;61.45;100735.15;1717524;83;21205;-78
2021/09/10 02:56:24;;;;;;;8.80;7.00;;;;;;;11.97;61.48;100737.36;1693095;82;21027;-78
2021/09/10 02:58:50;;;;;;;9.13;6.87;;;;;;;11.93;61.52;100733.16;1679265;84;21028;-78
2021/09/10 03:01:17;;;;;;;9.65;7.45;;;;;;;11.91;61.58;100737.51;1702406;83;21710;-78
2021/09/10 03:03:43;;;;;;;10.63;7.03;;;;;;;11.90;61.64;100737.09;1698129;83;21461;-78
2021/09/10 03:06:09;;;;;;;9.13;7.05;;;;;;;11.90;61.68;100737.09;1684512;84;21060;-78
2021/09/10 03:08:35;;;;;;;10.55;7.25;;;;;;;11.90;61.70;100741.84;1695969;84;21075;-78
2021/09/10 03:11:02;;;;;;;11.85;7.15;;;;;;;11.90;61.74;100748.76;1688617;84;21490;-78
2021/09/10 03:13:28;;;;;;;11.63;7.65;;;;;;;11.90;61.80;100747.47;1682952;83;21126;-78
2021/09/10 03:15:54;;;;;;;7.72;6.67;;;;;;;11.88;61.86;100749.23;1713357;82;21107;-78
2021/09/10 03:18:21;;;;;;;9.03;6.90;;;;;;;11.87;61.91;100744.93;1710052;83;21067;-78
2021/09/10 03:20:48;;;;;;;8.55;7.70;;;;;;;11.87;61.96;100740.60;1686757;83;21723;-78
2021/09/10 03:23:14;;;;;;;10.30;7.17;;;;;;;11.88;61.97;100744.90;1705012;83;21087;-78
2021/09/10 03:25:40;;;;;;;14.90;7.60;;;;;;;11.89;62.03;100742.72;1704931;83;21580;-78
2021/09/10 03:28:07;;;;;;;9.73;8.00;;;;;;;11.91;62.06;100738.81;1703908;83;21119;-78
2021/09/10 03:30:33;;;;;;;8.98;8.15;;;;;;;11.90;62.11;100733.21;1700554;83;21011;-78
2021/09/10 03:32:59;;;;;;;17.67;8.00;;;;;;;11.91;62.16;100736.22;1704061;82;21322;-78
2021/09/10 03:35:29;;;;;;;10.70;6.85;;;;;;;11.91;62.19;100737.07;1694665;84;21060;-78
2021/09/10 03:37:56;;;;;;;8.93;7.92;;;;;;;11.91;62.27;100728.44;1692475;83;21507;-78
2021/09/10 03:40:22;;;;;;;;;;;;;;;11.81;62.33;100709.62;1713507;83;20977;-78
2021/09/10 03:42:50;;;;;;;9.23;7.10;;;;;;;11.93;62.82;100728.83;1701273;83;20181;-78
2021/09/10 03:45:17;;;;;;;12.90;7.95;;;;;;;11.92;62.41;100727.56;1710130;83;25437;-78
2021/09/10 03:47:43;;;;;;;10.00;7.42;;;;;;;11.92;62.48;100728.85;1697707;83;21088;-78
2021/09/10 03:50:10;;;;;;;13.47;8.63;;;;;;;11.95;62.54;100729.23;1710343;82;21056;-78
2021/09/10 03:52:36;;;;;;;12.75;7.05;;;;;;;11.95;62.58;100727.94;1716452;82;21340;-78
2021/09/10 03:55:03;;;;;;;8.57;7.23;;;;;;;11.95;62.56;100727.94;1701895;82;21076;-78
2021/09/10 03:57:29;;;;;;;10.05;7.45;;;;;;;11.95;62.60;100729.23;1696579;83;21231;-78
2021/09/10 03:59:55;;;;;;;8.55;7.30;;;;;;;11.96;62.65;100728.35;1698482;82;21111;-78
2021/09/10 04:02:21;;;;;;;10.93;6.75;;;;;;;11.96;62.63;100728.35;1677976;83;21118;-78
2021/09/10 04:04:56;;;;;;;13.95;7.37;;;;;;;11.94;62.69;100724.50;1712393;82;21528;-78
2021/09/10 04:07:22;;;;;;;10.68;7.87;;;;;;;11.95;62.72;100722.76;1712279;82;21578;-78
2021/09/10 04:09:48;;;;;;;11.05;7.37;;;;;;;11.96;62.76;100723.17;1699513;83;21119;-78
2021/09/10 04:12:14;;;;;;;13.22;7.78;;;;;;;11.96;62.84;100725.28;1709679;83;20979;-78
2021/09/10 04:14:41;;;;;;;9.48;8.18;;;;;;;11.99;62.88;100727.81;1720536;82;21024;-78
2021/09/10 04:17:07;;;;;;;8.15;6.85;;;;;;;12.00;62.85;100731.27;1705654;82;21075;-78
2021/09/10 04:19:33;;;;;;;12.47;7.95;;;;;;;12.00;62.92;100722.19;1705556;82;21084;-78
2021/09/10 04:22:00;;;;;;;12.90;7.85;;;;;;;12.01;62.92;100717.42;1704617;82;20962;-78
2021/09/10 04:24:26;;;;;;;20.75;8.10;;;;;;;12.01;63.01;100720.86;1694098;83;21087;-79
2021/09/10 04:26:52;;;;;;;12.15;7.12;;;;;;;12.04;63.07;100723.84;1711742;82;21076;-79
2021/09/10 04:29:21;;;;;;;10.98;8.48;;;;;;;12.06;63.07;100722.07;1700708;84;21028;-79
2021/09/10 04:31:47;;;;;;;11.03;7.45;;;;;;;12.08;63.14;100722.45;1697456;82;21103;-79
2021/09/10 04:34:13;;;;;;;12.85;7.58;;;;;;;12.10;63.21;100727.61;1703562;83;21132;-79
2021/09/10 04:36:42;;;;;;;11.38;8.13;;;;;;;12.11;63.20;100724.98;1709019;82;21524;-79
2021/09/10 04:39:09;;;;;;;17.82;8.13;;;;;;;12.13;63.24;100728.39;1711380;83;21060;-78
2021/09/10 04:41:35;;;;;;;11.25;8.55;;;;;;;12.15;63.29;100729.66;1694007;83;21091;-78
2021/09/10 04:44:01;;;;;;;9.60;7.22;;;;;;;12.19;63.35;100732.59;1708774;82;21172;-78
2021/09/10 04:46:27;;;;;;;10.98;7.28;;;;;;;12.21;63.38;100729.53;1699563;82;21532;-78
2021/09/10 04:48:54;;;;;;;11.12;5.95;;;;;;;12.22;63.37;100732.09;1702038;83;21026;-78
2021/09/10 04:51:20;;;;;;;7.67;6.72;;;;;;;12.23;63.39;100737.69;1697109;83;21066;-78
2021/09/10 04:53:46;;;;;;;10.05;6.17;;;;;;;12.25;63.42;100731.17;1703127;83;21044;-78
2021/09/10 04:56:13;;;;;;;8.55;6.40;;;;;;;12.28;63.47;100732.85;1694487;83;20976;-78
2021/09/10 04:58:39;;;;;;;15.23;7.97;;;;;;;12.29;63.49;100736.71;1702832;83;21063;-78
2021/09/10 05:01:05;;;;;;;8.65;7.45;;;;;;;12.32;63.55;100734.50;1696235;83;21357;-78
2021/09/10 05:03:32;;;;;;;12.60;7.53;;;;;;;12.36;63.62;100736.14;1690060;83;21044;-79
2021/09/10 05:05:58;;;;;;;7.17;6.50;;;;;;;12.40;63.61;100730.00;1692487;83;21082;-79
2021/09/10 05:08:24;;;;;;;9.77;7.40;;;;;;;12.43;63.64;100735.13;1690880;84;21048;-79
2021/09/10 05:10:50;;;;;;;15.43;7.03;;;;;;;12.47;63.70;100731.58;1659679;84;755171;-79
2021/09/10 05:13:17;;;;;;;12.25;7.22;;;;;;;12.52;63.69;100730.56;1668006;85;20951;-79
2021/09/10 05:15:43;;;;;;;9.50;7.50;;;;;;;12.57;63.71;100729.16;1661923;85;21561;-79
2021/09/10 05:18:09;;;;;;;12.10;6.72;;;;;;;12.63;63.79;100735.51;1657683;85;20930;-79
2021/09/10 05:20:35;;;;;;;8.35;6.92;;;;;;;12.71;63.83;100742.67;1659818;85;21430;-79
2021/09/10 05:23:02;;;;;;;7.30;6.55;;;;;;;12.82;63.89;100747.18;1654812;85;20914;-79
2021/09/10 05:25:29;;;;;;;12.28;7.03;;;;;;;12.94;63.92;100739.55;1649486;83;406283;-79
2021/09/10 05:27:55;;;;;;;10.05;7.65;;;;;;;13.05;63.94;100740.56;1689205;83;20889;-79
2021/09/10 05:30:21;;;;;;;16.52;6.92;;;;;;;13.17;63.99;100739.86;1694042;83;21408;-79
2021/09/10 05:32:48;;;;;;;9.63;7.00;;;;;;;13.29;63.99;100747.80;1697198;83;20909;-79
2021/09/10 05:35:17;;;;;;;14.28;7.40;;;;;;;13.32;64.02;100726.09;1696449;84;20961;-79
2021/09/10 05:37:43;;;;;;;8.43;7.37;;;;;;;13.53;64.02;100743.69;1688584;83;20954;-79
2021/09/10 05:40:10;;;;;;;12.25;7.67;;;;;;;13.65;64.07;100747.27;1702350;83;20960;-79
2021/09/10 05:42:38;;;;;;;16.45;7.78;;;;;;;13.80;64.09;100744.71;1694603;83;20941;-79
2021/09/10 05:45:08;;;;;;;14.30;6.85;;;;;;;13.95;64.07;100742.99;1685441;83;20969;-79
2021/09/10 05:47:34;;;;;;;11.85;7.58;;;;;;;14.10;64.10;100743.83;1695597;83;20929;-79
2021/09/10 05:50:03;;;;;;;10.48;7.97;;;;;;;14.25;64.09;100743.84;1687768;83;20942;-79
2021/09/10 05:52:29;;;;;;;11.03;6.55;;;;;;;14.42;64.15;100746.84;1696513;83;20921;-79
2021/09/10 05:54:55;;;;;;;13.93;7.75;;;;;;;14.60;64.14;100747.16;1704031;83;21080;-79
2021/09/10 05:57:22;;;;;;;7.95;7.10;;;;;;;14.77;64.18;100745.74;1695098;84;21044;-79
2021/09/10 05:59:48;;;;;;;7.95;6.80;;;;;;;14.96;64.18;100743.87;1695707;83;21553;-79
2021/09/10 06:02:14;;;;;;;16.27;6.97;;;;;;;15.13;64.16;100743.70;1702207;83;21646;-79
2021/09/10 06:04:44;;;;;;;12.98;7.03;;;;;;;15.29;64.15;100747.95;1703020;82;21500;-79
2021/09/10 06:07:10;;;;;;;11.80;7.25;;;;;;;15.45;64.20;100750.45;1685081;83;21073;-79
2021/09/10 06:09:36;;;;;;;13.65;7.33;;;;;;;15.65;64.25;100746.31;1697425;83;21730;-79
2021/09/10 06:12:05;;;;;;;12.58;7.20;;;;;;;15.83;64.24;100754.80;1692131;83;21049;-79
2021/09/10 06:14:31;;;;;;;7.92;6.60;;;;;;;16.07;64.31;100752.62;1687633;82;111891;-79
2021/09/10 06:16:58;;;;;;;10.88;6.42;;;;;;;16.26;64.26;100748.85;1712803;82;21584;-79
2021/09/10 06:19:24;;;;;;;;;;;;;;;16.41;64.20;100752.19;1748458;80;21409;-79
2021/09/10 06:21:51;;;;;;;9.80;6.17;;;;;;;16.55;64.46;100756.44;1739208;80;20626;-79
2021/09/10 06:24:17;;;;;;;14.83;6.60;;;;;;;16.79;64.38;100756.40;1743440;80;20971;-79
2021/09/10 06:26:43;;;;;;;15.40;6.50;;;;;;;16.98;64.27;100755.22;1740708;80;21096;-79
2021/09/10 06:29:11;;;;;;;9.75;5.67;;;;;;;17.14;64.24;100758.91;1739131;80;21961;-79
2021/09/10 06:31:39;;;;;;;6.67;5.22;;;;;;;17.30;64.26;100756.49;1744525;80;21519;-79
2021/09/10 06:34:07;;;;;;;9.03;5.78;;;;;;;17.42;64.23;100759.91;1739138;80;21055;-79
2021/09/10 06:36:33;;;;;;;7.92;5.70;;;;;;;17.64;64.34;100764.62;1741546;80;21505;-79
2021/09/10 06:38:59;;;;;;;11.25;5.58;;;;;;;17.80;64.29;100764.81;1734819;80;21043;-79
2021/09/10 06:41:26;;;;;;;9.98;5.37;;;;;;;17.93;64.19;100766.45;1741716;80;21461;-79
2021/09/10 06:43:52;;;;;;;20.30;6.33;;;;;;;18.30;64.33;100769.09;1746774;80;21039;-79
2021/09/10 06:46:18;;;;;;;8.20;4.28;;;;;;;18.30;64.33;100769.09;1759581;80;21648;-79
2021/09/10 06:48:44;;;;;;;7.30;4.73;;;;;;;18.41;63.98;100772.07;1740734;80;21460;-79
2021/09/10 06:51:11;;;;;;;6.20;4.08;;;;;;;18.42;63.96;100751.97;1741112;80;22031;-79
2021/09/10 06:53:37;;;;;;;8.53;4.40;;;;;;;18.76;64.00;100769.13;1738813;80;20975;-79
2021/09/10 06:56:04;;;;;;;8.98;4.90;;;;;;;18.76;64.00;100769.13;1750701;80;22035;-79
2021/09/10 06:58:32;;;;;;;8.18;4.80;;;;;;;19.00;63.88;100779.36;1741693;80;21563;-79
2021/09/10 07:00:59;;;;;;;8.83;4.22;;;;;;;19.20;63.85;100779.25;1743068;80;21438;-79
2021/09/10 07:03:25;;;;;;;6.97;4.60;;;;;;;19.42;63.74;100779.01;1762459;80;21418;-79
2021/09/10 07:05:51;;;;;;;7.10;3.92;;;;;;;19.53;63.63;100786.37;1755355;80;21332;-79
2021/09/10 07:08:18;;;;;;;8.07;4.50;;;;;;;19.63;63.59;100783.21;1751489;80;20849;-79
2021/09/10 07:10:44;;;;;;;7.78;4.15;;;;;;;19.69;63.46;100785.98;1755336;80;22070;-79
2021/09/10 07:13:10;;;;;;;8.10;4.22;;;;;;;19.77;63.43;100786.41;1752115;80;21357;-79
2021/09/10 07:15:36;;;;;;;9.75;4.15;;;;;;;19.80;63.33;100790.19;1746239;80;21368;-79
2021/09/10 07:18:06;;;;;;;7.95;3.77;;;;;;;19.84;63.31;100792.58;1750535;80;21451;-79
2021/09/10 07:20:32;;;;;;;11.57;4.58;;;;;;;19.96;63.32;100795.50;1757059;80;20942;-79
2021/09/10 07:22:59;;;;;;;12.45;4.50;;;;;;;20.24;63.37;100801.00;1748532;80;21384;-79
2021/09/10 07:25:28;;;;;;;16.70;4.50;;;;;;;20.50;63.41;100800.93;1749785;80;21373;-79
2021/09/10 07:27:54;;;;;;;10.20;4.03;;;;;;;20.99;63.74;100801.67;1751889;80;21384;-79
2021/09/10 07:30:21;;;;;;;15.40;4.50;;;;;;;21.58;63.89;100800.04;1753600;80;21389;-79
2021/09/10 07:32:54;;;;;;;11.85;4.17;;;;;;;22.24;64.07;100800.04;1757488;80;21487;-79
2021/09/10 07:35:21;;;;;;;14.33;4.42;;;;;;;22.96;64.00;100791.90;1753165;80;21395;-79
2021/09/10 07:37:48;;;;;;;9.20;4.12;;;;;;;23.54;63.25;100792.50;1750942;79;21361;-79
2021/09/10 07:40:16;;;;;;;8.85;4.67;;;;;;;23.88;62.77;100789.75;1756532;80;21424;-79
2021/09/10 07:42:44;;;;;;;8.35;4.17;;;;;;;24.24;61.94;100786.33;1726412;81;21577;-79
2021/09/10 07:45:11;;;;;;;;;;;;;;;24.40;61.58;100789.61;1759315;80;21396;-79
2021/09/10 07:47:39;;;;;;;7.05;3.60;;;;;;;24.47;60.70;100785.55;1752976;80;20125;-79
2021/09/10 07:50:07;;;;;;;11.68;4.50;;;;;;;24.49;61.17;100790.73;1755322;80;21547;-79
2021/09/10 07:52:33;;;;;;;8.45;4.42;;;;;;;24.48;61.25;100785.08;1754295;80;21058;-79
2021/09/10 07:54:59;;;;;;;9.25;4.20;;;;;;;24.56;61.06;100788.02;1763502;80;21683;-79
2021/09/10 07:57:27;;;;;;;13.68;4.00;;;;;;;24.62;60.75;100795.52;1736927;81;39107;-79
2021/09/10 07:59:57;;;;;;;7.92;3.47;;;;;;;24.65;60.58;100796.61;1774688;80;21853;-79
2021/09/10 08:02:26;;;;;;;10.20;3.95;;;;;;;24.63;60.41;100794.08;1730058;80;21566;-79
2021/09/10 08:04:54;;;;;;;8.40;3.77;;;;;;;24.65;60.34;100800.10;1707283;82;21790;-79
2021/09/10 08:07:20;;;;;;;6.17;4.10;;;;;;;24.69;60.12;100802.05;1674265;84;21117;-79
2021/09/10 08:09:47;;;;;;;8.20;3.70;;;;;;;24.78;59.92;100795.25;1697097;84;21381;-79
2021/09/10 08:12:13;;;;;;;15.10;4.17;;;;;;;24.74;59.58;100809.17;1658487;85;21103;-79
2021/09/10 08:14:39;;;;;;;9.13;3.33;;;;;;;24.68;59.47;100802.53;1672701;84;20989;-79
2021/09/10 08:17:06;;;;;;;10.32;3.72;;;;;;;24.78;59.35;100811.97;1690904;84;21043;-79
2021/09/10 08:19:32;;;;;;;13.75;4.10;;;;;;;24.97;59.04;100809.68;1648929;85;21478;-79
2021/09/10 08:21:58;;;;;;;11.83;3.27;;;;;;;25.07;58.82;100805.89;1665350;85;21111;-79
2021/09/10 08:24:25;;;;;;;7.92;3.58;;;;;;;25.10;58.70;100799.53;1667631;85;21688;-79
2021/09/10 08:26:51;;;;;;;7.00;3.45;;;;;;;25.18;58.49;100803.77;1651162;85;21852;-79
2021/09/10 08:29:19;;;;;;;9.25;4.53;;;;;;;25.19;58.28;100804.14;1656835;85;21124;-81
2021/09/10 08:31:46;;;;;;;6.37;3.25;;;;;;;25.20;58.02;100809.33;1684094;84;21065;-81
2021/09/10 08:34:12;;;;;;;4.55;3.30;;;;;;;25.26;57.78;100807.55;1671242;84;29615;-81
2021/09/10 08:36:39;;;;;;;5.72;3.17;;;;;;;25.47;57.48;100811.72;1679002;84;21088;-81
2021/09/10 08:39:05;;;;;;;6.37;2.83;;;;;;;25.83;57.80;100812.06;1693860;84;21559;-81
2021/09/10 08:41:34;;;;;;;7.97;3.00;;;;;;;26.33;58.10;100808.15;1690066;84;21120;-81
2021/09/10 08:44:06;;;;;;;5.92;2.77;;;;;;;26.97;58.21;100810.11;1682069;84;20911;-81
2021/09/10 08:46:38;;;;;;;6.08;3.30;;;;;;;27.70;57.83;100815.94;1699970;84;20924;-81
2021/09/10 08:49:05;;;;;;;4.47;2.85;;;;;;;28.33;56.82;100815.38;1696702;84;20889;-81
2021/09/10 08:51:31;;;;;;;7.97;3.10;;;;;;;28.16;56.29;100806.66;1693534;84;20958;-81
2021/09/10 08:53:58;;;;;;;5.85;3.10;;;;;;;28.52;56.11;100812.80;1689387;84;20898;-81
2021/09/10 08:56:24;;;;;;;11.05;3.00;;;;;;;28.72;54.67;100815.00;1681687;84;20949;-80
2021/09/10 08:59:12;;;;;;;3.60;2.83;;;;;;;27.92;54.30;100807.83;1688277;84;20929;-80
2021/09/10 09:01:50;;;;;;;7.05;4.00;;;;;;;27.27;54.22;100814.69;1689308;83;20922;-80
2021/09/10 09:04:17;;;;;;;10.18;2.95;;;;;;;26.78;53.99;100811.21;1677108;84;21385;-80
2021/09/10 09:06:53;;;;;;;10.50;3.17;;;;;;;26.39;53.78;100806.82;1687692;84;21380;-80
2021/09/10 09:09:42;;;;;;;8.40;3.00;;;;;;;26.11;53.53;100813.41;1682418;84;20921;-80
2021/09/10 09:12:26;;;;;;;7.47;3.83;;;;;;;25.90;53.35;100809.80;1671593;84;21009;-81
2021/09/10 09:15:05;;;;;;;9.23;3.42;;;;;;;25.71;53.06;100804.58;1686707;84;20895;-81
2021/09/10 09:17:40;;;;;;;6.83;3.08;;;;;;;25.53;52.83;100809.06;1689801;84;20870;-81
2021/09/10 09:20:24;;;;;;;4.58;3.17;;;;;;;25.36;52.48;100811.67;1679688;84;20895;-81
2021/09/10 09:22:53;;;;;;;7.30;3.42;;;;;;;25.21;52.35;100809.69;1677773;84;20901;-81
2021/09/10 09:25:28;;;;;;;8.48;3.45;;;;;;;25.17;52.24;100815.31;1678030;83;20930;-81
2021/09/10 09:27:55;;;;;;;8.50;3.58;;;;;;;25.11;52.00;100807.83;1674737;84;20918;-81
2021/09/10 09:30:40;;;;;;;4.72;3.62;;;;;;;25.08;51.83;100803.13;1683044;84;20954;-81
2021/09/10 09:33:07;;;;;;;8.45;3.70;;;;;;;25.05;51.64;100807.33;1662926;84;21344;-81
2021/09/10 09:35:34;;;;;;;7.37;3.25;;;;;;;25.01;51.49;100799.24;1685634;83;21113;-81
2021/09/10 09:38:20;;;;;;;18.23;3.47;;;;;;;25.00;51.45;100805.48;1687979;84;21144;-81
2021/09/10 09:40:53;;;;;;;8.93;3.50;;;;;;;25.03;51.33;100806.59;1688986;84;21117;-81
2021/09/10 09:43:26;;;;;;;6.20;2.72;;;;;;;25.06;51.21;100805.05;1683089;84;20941;-81
2021/09/10 09:45:54;;;;;;;9.43;3.75;;;;;;;25.12;51.10;100808.20;1688502;84;21108;-81
2021/09/10 09:48:24;;;;;;;10.48;3.58;;;;;;;25.14;50.88;100808.92;1687884;84;21525;-81
2021/09/10 09:50:53;;;;;;;6.78;3.20;;;;;;;25.14;50.71;100807.13;1682474;84;21104;-81
2021/09/10 09:53:22;;;;;;;6.95;3.27;;;;;;;25.12;50.61;100805.07;1684757;83;21093;-81
2021/09/10 09:55:50;;;;;;;10.53;3.95;;;;;;;25.12;50.53;100806.39;1683430;84;21469;-81
2021/09/10 09:58:17;;;;;;;5.55;3.30;;;;;;;25.12;50.42;100802.91;1686674;84;21064;-81
2021/09/10 10:00:46;;;;;;;11.93;4.00;;;;;;;25.11;50.32;100806.03;1687971;84;21120;-81
2021/09/10 10:03:13;;;;;;;10.48;3.35;;;;;;;25.12;50.26;100803.75;1712435;82;21030;-81
2021/09/10 10:05:55;;;;;;;7.83;3.95;;;;;;;25.16;50.17;100806.53;1748838;80;21076;-81
2021/09/10 10:09:01;;;;;;;8.73;4.30;;;;;;;25.22;50.10;100809.20;1741221;80;21053;-81
2021/09/10 10:11:43;;;;;;;6.72;3.55;;;;;;;25.25;49.99;100810.30;1749595;80;21127;-81
2021/09/10 10:14:17;;;;;;;5.95;3.62;;;;;;;25.24;49.88;100805.97;1747694;80;21069;-81
2021/09/10 10:16:48;;;;;;;10.25;3.87;;;;;;;25.33;49.82;100807.94;1734836;80;20979;-81
2021/09/10 10:19:26;;;;;;;4.40;4.00;;;;;;;25.36;49.76;100810.36;1740068;80;21008;-81
2021/09/10 10:22:05;;;;;;;8.70;3.77;;;;;;;25.41;49.74;100802.91;1750644;80;21374;-81
2021/09/10 10:24:48;;;;;;;6.00;4.08;;;;;;;25.44;49.63;100807.98;1748493;80;21074;-81
2021/09/10 10:27:43;;;;;;;8.95;3.70;;;;;;;25.49;49.55;100808.92;1744139;80;21103;-81
2021/09/10 10:30:18;;;;;;;5.00;4.47;;;;;;;25.50;49.48;100810.14;1753852;80;20953;-81
2021/09/10 10:32:52;;;;;;;6.90;4.10;;;;;;;25.51;49.33;100803.88;1731150;81;20941;-81
2021/09/10 10:35:39;;;;;;;7.85;4.30;;;;;;;25.53;49.36;100805.09;1750198;80;20918;-81
2021/09/10 10:38:09;;;;;;;10.00;4.20;;;;;;;25.56;49.22;100796.91;1728496;80;20920;-81
2021/09/10 10:40:51;;;;;;;7.28;4.20;;;;;;;25.58;49.15;100796.31;1753451;80;20922;-81
2021/09/10 10:43:27;;;;;;;9.45;4.10;;;;;;;25.60;49.06;100796.56;1752803;80;20961;-81
2021/09/10 10:46:06;;;;;;;4.72;4.20;;;;;;;25.65;49.10;100794.45;1749239;80;20961;-81
2021/09/10 10:48:38;;;;;;;5.95;3.83;;;;;;;25.71;49.05;100790.01;1755010;80;20902;-81
2021/09/10 10:51:21;;;;;;;5.15;4.25;;;;;;;25.79;49.00;100790.75;1763593;80;20965;-81
2021/09/10 10:53:56;;;;;;;5.40;3.98;;;;;;;25.84;48.84;100789.91;1751735;80;20934;-81
2021/09/10 10:56:39;;;;;;;8.00;4.10;;;;;;;25.88;48.77;100779.92;1753371;80;408665;-81
2021/09/10 10:59:21;;;;;;;8.78;4.15;;;;;;;25.89;48.78;100783.78;1620938;81;10000739;-81
2021/09/10 11:02:31;;;;;;;8.65;4.08;;;;;;;25.97;48.75;100785.36;1692974;83;21454;-81
2021/09/10 11:05:17;;;;;;;7.55;3.72;;;;;;;26.04;48.73;100779.91;1744844;81;20867;-81
2021/09/10 11:07:44;;;;;;;6.25;4.33;;;;;;;26.11;48.63;100778.11;1746274;81;20926;-81
2021/09/10 11:10:18;;;;;;;6.37;3.92;;;;;;;26.17;48.52;100780.28;1715761;82;20941;-81
2021/09/10 11:12:49;;;;;;;5.55;3.77;;;;;;;26.19;48.48;100783.17;1722023;81;21356;-81
2021/09/10 11:15:30;;;;;;;7.03;3.95;;;;;;;26.23;48.46;100786.42;1696672;83;20981;-81
2021/09/10 11:18:03;;;;;;;7.42;4.33;;;;;;;26.26;48.35;100774.25;1634802;86;21797;-81
2021/09/10 11:20:44;;;;;;;13.68;4.33;;;;;;;26.31;48.27;100779.59;1645047;85;21068;-81
2021/09/10 11:23:26;;;;;;;5.70;3.77;;;;;;;26.35;48.20;100778.38;1643462;86;20999;-81
2021/09/10 11:25:55;;;;;;;5.08;3.80;;;;;;;26.40;48.13;100787.30;1654205;85;21053;-81
2021/09/10 11:28:22;;;;;;;3.60;3.30;;;;;;;26.45;48.04;100778.97;1672513;81;20872;-81
2021/09/10 11:30:52;;;;;;;7.80;3.47;;;;;;;26.47;47.97;100773.06;1708551;81;20924;-81